Time;durP1;ratioP1;P1;durP2;ratioP2;P2;SDS_P1;SDS_P2;PMS_P1;PMS_P2;Temp;Humidity;BMP_temperature;BMP_pressure;BME280_temperature;BME280_humidity;BME280_pressure;Samples;Min_cycle;Max_cycle;Signal;HPM_P1;HPM_P2
2022/02/16 00:01:23;;;;;;;67.57;44.83;;;;;;;;;;4982687;28;20053;-77
2022/02/16 00:03:49;;;;;;;66.43;44.53;;;;;;;;;;4982479;28;20477;-78
2022/02/16 00:06:15;;;;;;;64.80;45.17;;;;;;;;;;4971525;28;20038;-78
2022/02/16 00:08:42;;;;;;;66.00;44.67;;;;;;;;;;4971822;28;20031;-78
2022/02/16 00:11:08;;;;;;;72.40;46.60;;;;;;;;;;4970371;28;20027;-78
2022/02/16 00:13:34;;;;;;;65.63;44.67;;;;;;;;;;4971358;28;20031;-77
2022/02/16 00:16:00;;;;;;;69.60;45.33;;;;;;;;;;4973239;28;20031;-78
2022/02/16 00:18:26;;;;;;;66.53;43.80;;;;;;;;;;4972009;28;20492;-78
2022/02/16 00:20:52;;;;;;;62.87;42.80;;;;;;;;;;4971602;28;20027;-77
2022/02/16 00:23:18;;;;;;;75.23;44.30;;;;;;;;;;4984868;28;20472;-78
2022/02/16 00:25:44;;;;;;;67.23;44.33;;;;;;;;;;4990863;28;20038;-78
2022/02/16 00:28:10;;;;;;;64.33;44.30;;;;;;;;;;4977936;28;20031;-78
2022/02/16 00:30:36;;;;;;;67.33;45.40;;;;;;;;;;4971593;28;20229;-77
2022/02/16 00:33:02;;;;;;;69.27;45.67;;;;;;;;;;4971396;28;20035;-77
2022/02/16 00:35:28;;;;;;;70.13;44.90;;;;;;;;;;4975044;28;20058;-77
2022/02/16 00:37:54;;;;;;;72.30;44.90;;;;;;;;;;4987878;28;20058;-77
2022/02/16 00:40:21;;;;;;;68.30;44.37;;;;;;;;;;4990555;28;20108;-76
2022/02/16 00:42:47;;;;;;;67.20;44.30;;;;;;;;;;4981869;28;20027;-77
2022/02/16 00:45:13;;;;;;;68.57;45.40;;;;;;;;;;4971729;28;20035;-77
2022/02/16 00:47:39;;;;;;;65.67;46.30;;;;;;;;;;4971665;28;20436;-77
2022/02/16 00:50:05;;;;;;;74.33;46.53;;;;;;;;;;4971757;28;20022;-77
2022/02/16 00:52:31;;;;;;;68.17;46.37;;;;;;;;;;4981785;28;20026;-77
2022/02/16 00:54:57;;;;;;;67.53;46.30;;;;;;;;;;4990711;28;20054;-77
2022/02/16 00:57:23;;;;;;;70.20;47.90;;;;;;;;;;4988053;28;20034;-77
2022/02/16 00:59:49;;;;;;;71.17;46.37;;;;;;;;;;4975467;28;20030;-77
2022/02/16 01:02:15;;;;;;;69.30;46.40;;;;;;;;;;4974029;28;20026;-77
2022/02/16 01:07:45;;;;;;;70.17;46.60;;;;;;;;;;4982259;28;20049;-76
2022/02/16 01:10:11;;;;;;;74.30;48.13;;;;;;;;;;4993625;28;20023;-77
2022/02/16 01:12:37;;;;;;;75.13;47.50;;;;;;;;;;4991726;28;20026;-77
2022/02/16 01:15:03;;;;;;;77.33;49.00;;;;;;;;;;4993585;28;20026;-77
2022/02/16 01:17:29;;;;;;;73.30;47.33;;;;;;;;;;4992209;28;20031;-77
2022/02/16 01:19:55;;;;;;;77.80;49.57;;;;;;;;;;4992337;28;20076;-77
2022/02/16 01:22:21;;;;;;;73.87;47.93;;;;;;;;;;4992783;28;20022;-77
2022/02/16 01:24:47;;;;;;;72.60;48.10;;;;;;;;;;4992274;28;20034;-77
2022/02/16 01:27:13;;;;;;;76.40;48.20;;;;;;;;;;4992263;28;20034;-77
2022/02/16 01:29:39;;;;;;;75.50;50.07;;;;;;;;;;4992463;28;20034;-77
2022/02/16 01:32:05;;;;;;;70.00;45.93;;;;;;;;;;4992042;28;20023;-76
2022/02/16 01:34:31;;;;;;;77.33;49.47;;;;;;;;;;4993434;28;20034;-77
2022/02/16 01:36:57;;;;;;;74.47;47.93;;;;;;;;;;4992677;28;20431;-77
2022/02/16 01:39:23;;;;;;;77.43;49.33;;;;;;;;;;4974510;28;20051;-77
2022/02/16 01:41:52;;;;;;;69.23;46.33;;;;;;;;;;4991915;28;20026;-77
2022/02/16 01:44:21;;;;;;;75.37;47.13;;;;;;;;;;4991951;28;20061;-77
2022/02/16 01:47:04;;;;;;;67.63;44.50;;;;;;;;;;4993254;28;20022;-77
2022/02/16 01:49:31;;;;;;;73.13;46.67;;;;;;;;;;4973595;28;20441;-76
2022/02/16 01:51:57;;;;;;;73.10;46.07;;;;;;;;;;4972375;28;20431;-76
2022/02/16 01:54:23;;;;;;;72.53;45.70;;;;;;;;;;4991549;28;20038;-77
2022/02/16 01:56:50;;;;;;;73.73;47.60;;;;;;;;;;4993020;28;20026;-77
2022/02/16 01:59:16;;;;;;;73.80;47.00;;;;;;;;;;4991869;28;20026;-77
2022/02/16 02:01:43;;;;;;;70.13;47.27;;;;;;;;;;4990840;28;20536;-77
2022/02/16 02:04:09;;;;;;;74.13;47.93;;;;;;;;;;4990699;28;20034;-77
2022/02/16 02:06:35;;;;;;;78.57;47.77;;;;;;;;;;4992917;28;20050;-77
2022/02/16 02:09:01;;;;;;;75.50;47.73;;;;;;;;;;4992111;28;20062;-76
2022/02/16 02:11:27;;;;;;;71.93;46.97;;;;;;;;;;4991385;28;20391;-77
2022/02/16 02:13:54;;;;;;;73.37;47.77;;;;;;;;;;4981762;28;20392;-77
2022/02/16 02:16:20;;;;;;;73.30;47.37;;;;;;;;;;4971991;28;20027;-77
2022/02/16 02:18:46;;;;;;;71.90;47.50;;;;;;;;;;4971815;28;20033;-77
2022/02/16 02:21:12;;;;;;;78.97;48.73;;;;;;;;;;4973097;28;20062;-77
2022/02/16 02:23:38;;;;;;;74.07;46.73;;;;;;;;;;4979333;28;20062;-77
2022/02/16 02:26:04;;;;;;;75.83;48.63;;;;;;;;;;4992497;28;20029;-77
2022/02/16 02:34:37;;;;;;;76.23;49.17;;;;;;;;;;4977669;28;20085;-76
2022/02/16 02:37:04;;;;;;;73.00;47.93;;;;;;;;;;4971711;28;20476;-77
2022/02/16 02:39:29;;;;;;;76.70;48.53;;;;;;;;;;4984378;28;20054;-77
2022/02/16 02:41:56;;;;;;;69.77;46.20;;;;;;;;;;4990652;28;20100;-77
2022/02/16 02:44:22;;;;;;;75.10;47.47;;;;;;;;;;4990930;28;20042;-77
2022/02/16 02:46:48;;;;;;;76.57;46.33;;;;;;;;;;4987290;28;20404;-76
2022/02/16 02:52:17;;;;;;;78.80;48.00;;;;;;;;;;4973002;28;20061;-77
2022/02/16 02:54:43;;;;;;;73.47;46.37;;;;;;;;;;4972707;28;20095;-77
2022/02/16 02:57:09;;;;;;;73.77;47.40;;;;;;;;;;4972757;28;20528;-77
2022/02/16 02:59:35;;;;;;;81.90;47.50;;;;;;;;;;4974711;28;20033;-76
2022/02/16 03:02:02;;;;;;;79.97;48.97;;;;;;;;;;4972077;28;20027;-76
2022/02/16 03:04:28;;;;;;;77.40;47.10;;;;;;;;;;4974783;28;20030;-77
2022/02/16 03:06:54;;;;;;;75.70;47.60;;;;;;;;;;4990708;28;20063;-77
2022/02/16 03:21:34;;;;;;;79.37;48.57;;;;;;;;;;4984479;28;20118;-76
2022/02/16 03:24:00;;;;;;;78.47;49.53;;;;;;;;;;4990523;28;20034;-76
2022/02/16 03:26:26;;;;;;;80.83;49.70;;;;;;;;;;4991618;28;20022;-76
2022/02/16 03:28:52;;;;;;;79.97;50.23;;;;;;;;;;4972192;28;20042;-76
2022/02/16 03:31:18;;;;;;;83.13;49.53;;;;;;;;;;4971250;28;20384;-76
2022/02/16 03:33:45;;;;;;;77.30;48.60;;;;;;;;;;4988261;28;20030;-76
2022/02/16 03:36:13;;;;;;;82.33;50.60;;;;;;;;;;4991522;28;20064;-76
2022/02/16 03:38:39;;;;;;;83.73;51.73;;;;;;;;;;4990242;28;20034;-76
2022/02/16 03:41:06;;;;;;;77.17;49.03;;;;;;;;;;4990267;28;20026;-76
2022/02/16 03:43:32;;;;;;;78.13;50.07;;;;;;;;;;4986131;28;20034;-77
2022/02/16 03:45:58;;;;;;;79.80;48.03;;;;;;;;;;4991320;28;20480;-77
2022/02/16 03:48:24;;;;;;;75.87;47.33;;;;;;;;;;4971592;28;20035;-76
2022/02/16 03:50:50;;;;;;;81.83;50.13;;;;;;;;;;4971857;28;20030;-76
2022/02/16 03:53:19;;;;;;;79.67;49.03;;;;;;;;;;4983808;28;20452;-76
2022/02/16 03:55:45;;;;;;;78.57;48.47;;;;;;;;;;4991285;28;20019;-76
2022/02/16 03:58:11;;;;;;;77.30;49.63;;;;;;;;;;4978530;28;20031;-76
2022/02/16 04:00:37;;;;;;;75.27;48.80;;;;;;;;;;4970350;28;20031;-76
2022/02/16 04:03:07;;;;;;;83.47;51.00;;;;;;;;;;4981321;28;20030;-77
2022/02/16 04:05:33;;;;;;;85.77;51.40;;;;;;;;;;4991591;28;20038;-77
2022/02/16 04:08:00;;;;;;;79.60;50.00;;;;;;;;;;4988946;28;20026;-76
2022/02/16 04:10:26;;;;;;;81.57;51.00;;;;;;;;;;4990940;28;20038;-77
2022/02/16 04:12:52;;;;;;;82.00;50.97;;;;;;;;;;4989940;28;20027;-76
2022/02/16 04:15:18;;;;;;;81.30;49.93;;;;;;;;;;4981621;28;20082;-77
2022/02/16 04:17:44;;;;;;;84.17;49.53;;;;;;;;;;4970370;28;20023;-77
2022/02/16 04:20:11;;;;;;;83.50;52.27;;;;;;;;;;4971501;28;20042;-76
2022/02/16 04:22:41;;;;;;;84.67;51.10;;;;;;;;;;4970466;28;20117;-76
2022/02/16 04:25:08;;;;;;;84.97;53.03;;;;;;;;;;4971489;28;20396;-76
2022/02/16 04:27:34;;;;;;;84.87;53.43;;;;;;;;;;4972624;28;20101;-76
2022/02/16 04:30:00;;;;;;;84.83;52.47;;;;;;;;;;4990757;28;20030;-77
2022/02/16 04:32:26;;;;;;;85.13;50.87;;;;;;;;;;4988777;28;20026;-76
2022/02/16 04:34:52;;;;;;;80.43;49.97;;;;;;;;;;4970006;28;20081;-77
2022/02/16 04:37:18;;;;;;;82.67;50.40;;;;;;;;;;4971429;28;20033;-77
2022/02/16 04:39:44;;;;;;;84.27;50.87;;;;;;;;;;4979517;28;20050;-77
2022/02/16 04:42:10;;;;;;;83.03;49.83;;;;;;;;;;4991504;28;20452;-77
2022/02/16 04:44:36;;;;;;;84.27;51.07;;;;;;;;;;4992921;28;20074;-76
2022/02/16 04:47:02;;;;;;;89.10;52.90;;;;;;;;;;4992874;28;20026;-76
2022/02/16 04:49:28;;;;;;;83.57;50.97;;;;;;;;;;4976274;28;20057;-76
2022/02/16 04:51:54;;;;;;;89.87;51.67;;;;;;;;;;4974649;28;20031;-76
2022/02/16 04:54:23;;;;;;;87.43;52.77;;;;;;;;;;4989941;28;20038;-76
2022/02/16 04:56:50;;;;;;;88.80;52.13;;;;;;;;;;4989115;28;20031;-77
2022/02/16 04:59:16;;;;;;;85.13;50.40;;;;;;;;;;4988989;28;20038;-77
2022/02/16 05:01:42;;;;;;;86.53;52.00;;;;;;;;;;4993828;28;20357;-76
2022/02/16 05:04:08;;;;;;;85.33;51.10;;;;;;;;;;4978148;28;20100;-76
2022/02/16 05:06:37;;;;;;;92.40;53.13;;;;;;;;;;4974835;28;20122;-76
2022/02/16 05:09:04;;;;;;;86.87;51.47;;;;;;;;;;4986381;28;20117;-77
2022/02/16 05:11:30;;;;;;;93.40;52.43;;;;;;;;;;4975868;28;20027;-76
2022/02/16 05:13:56;;;;;;;89.30;53.93;;;;;;;;;;4985178;28;20033;-76
2022/02/16 05:16:22;;;;;;;89.73;51.63;;;;;;;;;;4993810;28;20034;-76
2022/02/16 05:18:49;;;;;;;86.17;52.73;;;;;;;;;;4992958;28;20030;-77
2022/02/16 05:21:15;;;;;;;87.50;52.77;;;;;;;;;;4974674;28;20464;-76
2022/02/16 05:23:42;;;;;;;84.33;50.43;;;;;;;;;;4982874;28;20039;-76
2022/02/16 05:26:08;;;;;;;95.90;53.03;;;;;;;;;;4993675;28;20109;-76
2022/02/16 05:28:34;;;;;;;93.23;52.60;;;;;;;;;;4991518;28;20167;-76
2022/02/16 05:31:00;;;;;;;89.70;52.37;;;;;;;;;;4980228;28;20507;-77
2022/02/16 05:33:26;;;;;;;89.27;52.43;;;;;;;;;;4973814;28;20035;-77
2022/02/16 05:35:53;;;;;;;90.43;53.90;;;;;;;;;;4972577;28;20469;-76
2022/02/16 05:38:19;;;;;;;89.87;53.33;;;;;;;;;;4980546;28;20467;-77
2022/02/16 05:40:45;;;;;;;88.63;51.13;;;;;;;;;;4983570;28;20117;-76
2022/02/16 05:43:15;;;;;;;91.50;51.93;;;;;;;;;;4972489;28;20400;-77
2022/02/16 05:45:45;;;;;;;88.50;50.47;;;;;;;;;;4973910;28;20046;-77
2022/02/16 05:48:11;;;;;;;93.13;52.53;;;;;;;;;;4979517;28;20035;-76
2022/02/16 05:50:37;;;;;;;88.57;52.00;;;;;;;;;;4991859;28;20121;-77
2022/02/16 05:53:03;;;;;;;98.87;55.50;;;;;;;;;;4990513;28;20030;-77
2022/02/16 05:55:30;;;;;;;91.87;51.20;;;;;;;;;;4982642;28;20038;-77
2022/02/16 05:57:56;;;;;;;89.87;51.70;;;;;;;;;;4986760;28;20031;-77
2022/02/16 06:00:34;;;;;;;93.10;53.90;;;;;;;;;;4983897;28;20035;-76
2022/02/16 06:03:00;;;;;;;93.93;53.53;;;;;;;;;;4979848;28;20033;-77
2022/02/16 06:05:26;;;;;;;93.60;52.83;;;;;;;;;;4993200;28;20030;-77
2022/02/16 06:07:52;;;;;;;94.97;52.57;;;;;;;;;;4992089;28;20033;-77
2022/02/16 06:10:18;;;;;;;94.50;54.43;;;;;;;;;;4991800;28;20129;-76
2022/02/16 06:12:44;;;;;;;94.40;54.00;;;;;;;;;;4991502;28;20061;-76
2022/02/16 06:15:11;;;;;;;90.57;52.67;;;;;;;;;;4991797;28;20365;-77
2022/02/16 06:17:37;;;;;;;95.07;53.37;;;;;;;;;;4992329;28;20031;-77
2022/02/16 06:20:03;;;;;;;93.10;52.63;;;;;;;;;;4993072;28;20030;-77
2022/02/16 06:22:29;;;;;;;93.87;51.83;;;;;;;;;;4992299;28;20027;-77
2022/02/16 06:24:55;;;;;;;94.87;53.07;;;;;;;;;;4973503;28;20507;-77
2022/02/16 06:27:22;;;;;;;89.33;50.07;;;;;;;;;;4973946;28;20026;-76
2022/02/16 06:29:48;;;;;;;94.73;52.43;;;;;;;;;;4990016;28;20033;-77
2022/02/16 06:32:14;;;;;;;93.87;49.10;;;;;;;;;;4971814;28;20031;-76
2022/02/16 06:34:43;;;;;;;97.53;52.67;;;;;;;;;;4990459;28;20030;-76
2022/02/16 06:37:09;;;;;;;91.93;49.83;;;;;;;;;;4972768;28;20027;-61
2022/02/16 06:39:35;;;;;;;91.70;51.17;;;;;;;;;;4985881;28;20058;-63
2022/02/16 06:42:01;;;;;;;91.57;51.53;;;;;;;;;;4991886;28;20058;-71
2022/02/16 06:44:27;;;;;;;92.30;52.40;;;;;;;;;;5004715;28;20123;-61
2022/02/16 06:46:53;;;;;;;89.93;49.53;;;;;;;;;;5024965;28;20035;-74
2022/02/16 06:49:19;;;;;;;94.63;51.17;;;;;;;;;;4995138;28;20034;-74
2022/02/16 06:51:45;;;;;;;88.83;51.47;;;;;;;;;;4989282;28;20053;-75
2022/02/16 06:54:11;;;;;;;92.37;51.30;;;;;;;;;;4980629;28;20365;-75
2022/02/16 06:56:37;;;;;;;88.83;49.93;;;;;;;;;;4972766;28;20035;-74
2022/02/16 06:59:03;;;;;;;89.40;49.67;;;;;;;;;;4972785;28;20039;-75
2022/02/16 07:01:29;;;;;;;90.63;51.73;;;;;;;;;;4972672;28;20362;-74
2022/02/16 07:03:55;;;;;;;90.47;49.17;;;;;;;;;;4981649;28;20465;-73
2022/02/16 07:06:22;;;;;;;92.87;50.67;;;;;;;;;;4991934;28;20380;-74
2022/02/16 07:08:48;;;;;;;81.03;46.57;;;;;;;;;;4980985;28;20043;-74
2022/02/16 07:11:14;;;;;;;89.07;49.43;;;;;;;;;;4972057;28;20031;-74
2022/02/16 07:13:41;;;;;;;86.37;48.20;;;;;;;;;;4974288;28;20392;-74
2022/02/16 07:16:07;;;;;;;83.80;48.87;;;;;;;;;;4972175;28;20468;-74
2022/02/16 07:18:35;;;;;;;89.47;49.27;;;;;;;;;;4978365;28;20030;-74
2022/02/16 07:21:01;;;;;;;85.77;48.47;;;;;;;;;;4989000;28;20069;-74
2022/02/16 07:23:28;;;;;;;92.33;50.80;;;;;;;;;;4984808;28;20057;-74
2022/02/16 07:25:55;;;;;;;84.57;49.97;;;;;;;;;;4990127;28;20025;-74
2022/02/16 07:28:21;;;;;;;84.73;48.30;;;;;;;;;;4986890;28;20034;-74
2022/02/16 07:30:48;;;;;;;83.10;49.43;;;;;;;;;;4979865;28;20141;-74
2022/02/16 07:33:15;;;;;;;85.00;50.33;;;;;;;;;;4972485;28;20030;-74
2022/02/16 07:35:41;;;;;;;85.37;50.13;;;;;;;;;;4972166;28;20389;-75
2022/02/16 07:38:07;;;;;;;92.23;53.43;;;;;;;;;;4971550;28;20500;-74
2022/02/16 07:40:34;;;;;;;86.87;51.17;;;;;;;;;;4990129;28;20484;-75
2022/02/16 07:43:00;;;;;;;87.00;50.17;;;;;;;;;;4990506;28;20030;-75
2022/02/16 07:45:26;;;;;;;87.43;51.83;;;;;;;;;;4991599;28;20080;-75
2022/02/16 07:47:52;;;;;;;86.10;50.67;;;;;;;;;;4989713;28;20412;-75
2022/02/16 07:50:18;;;;;;;94.67;54.53;;;;;;;;;;4989478;28;20034;-76
2022/02/16 07:52:45;;;;;;;89.97;55.77;;;;;;;;;;4991237;28;20027;-76
2022/02/16 07:55:12;;;;;;;92.47;54.47;;;;;;;;;;4990233;28;20027;-75
2022/02/16 07:57:38;;;;;;;90.30;53.43;;;;;;;;;;4991472;28;20196;-75
2022/02/16 08:00:05;;;;;;;96.93;54.37;;;;;;;;;;4990229;28;20058;-75
2022/02/16 08:02:31;;;;;;;98.00;55.40;;;;;;;;;;4986408;28;20128;-75
2022/02/16 08:04:57;;;;;;;99.43;56.03;;;;;;;;;;4976571;28;20090;-74
2022/02/16 08:07:23;;;;;;;88.60;52.33;;;;;;;;;;4981959;28;20033;-75
2022/02/16 08:09:49;;;;;;;97.97;53.73;;;;;;;;;;4990085;28;20163;-75
2022/02/16 08:12:15;;;;;;;97.17;54.63;;;;;;;;;;4988630;28;20384;-75
2022/02/16 08:14:42;;;;;;;92.93;53.93;;;;;;;;;;4982882;28;20069;-75
2022/02/16 08:17:08;;;;;;;94.90;54.50;;;;;;;;;;4989942;28;20487;-75
2022/02/16 08:19:35;;;;;;;92.17;53.57;;;;;;;;;;4990822;28;20037;-75
2022/02/16 08:22:02;;;;;;;88.40;51.77;;;;;;;;;;4982907;28;20042;-76
2022/02/16 08:24:29;;;;;;;91.47;55.50;;;;;;;;;;4971114;28;20121;-76
2022/02/16 08:27:17;;;;;;;90.97;54.07;;;;;;;;;;4981523;28;20027;-75
2022/02/16 08:29:44;;;;;;;89.10;52.40;;;;;;;;;;4980749;28;20035;-76
2022/02/16 08:32:10;;;;;;;87.93;53.63;;;;;;;;;;4976899;28;20030;-76
2022/02/16 08:34:36;;;;;;;92.13;53.00;;;;;;;;;;4990720;28;20034;-76
2022/02/16 08:37:02;;;;;;;93.63;54.60;;;;;;;;;;4989973;28;20023;-76
2022/02/16 08:39:28;;;;;;;88.47;52.90;;;;;;;;;;4989028;28;20123;-76
2022/02/16 08:41:56;;;;;;;86.70;51.90;;;;;;;;;;4984210;28;20027;-75
2022/02/16 08:44:23;;;;;;;78.60;49.60;;;;;;;;;;4990109;28;20039;-76
2022/02/16 08:46:50;;;;;;;83.93;50.23;;;;;;;;;;4986166;28;20023;-76
2022/02/16 08:49:17;;;;;;;85.47;51.93;;;;;;;;;;4975085;28;20101;-75
2022/02/16 08:51:44;;;;;;;88.27;53.43;;;;;;;;;;4987641;28;20026;-76
2022/02/16 08:54:10;;;;;;;89.13;54.07;;;;;;;;;;4969833;28;20118;-76
2022/02/16 08:56:37;;;;;;;82.87;50.50;;;;;;;;;;4972138;28;20026;-75
2022/02/16 08:59:04;;;;;;;85.90;52.60;;;;;;;;;;4990226;28;20038;-75
2022/02/16 09:01:54;;;;;;;84.53;52.83;;;;;;;;;;4989391;28;20031;-75
2022/02/16 09:04:21;;;;;;;89.23;54.23;;;;;;;;;;4969128;28;20400;-75
2022/02/16 09:07:27;;;;;;;90.63;53.57;;;;;;;;;;4975172;28;20031;-76
2022/02/16 09:09:37;;;;;;;87.17;52.23;;;;;;;;;;4990131;28;20555;-75
2022/02/16 09:12:03;;;;;;;90.60;54.53;;;;;;;;;;4987202;28;20036;-75
2022/02/16 09:14:29;;;;;;;98.47;58.70;;;;;;;;;;4988896;28;20052;-75
2022/02/16 09:16:56;;;;;;;92.63;55.50;;;;;;;;;;4988463;28;20075;-75
2022/02/16 09:19:22;;;;;;;104.80;57.60;;;;;;;;;;4990000;28;20042;-75
2022/02/16 09:21:49;;;;;;;102.43;58.70;;;;;;;;;;4987645;28;20027;-76
2022/02/16 09:24:15;;;;;;;110.93;61.47;;;;;;;;;;4984138;28;20144;-75
2022/02/16 09:26:41;;;;;;;108.57;59.10;;;;;;;;;;4972120;28;20027;-75
2022/02/16 09:29:07;;;;;;;101.40;58.07;;;;;;;;;;4984765;28;20034;-75
2022/02/16 09:31:39;;;;;;;100.03;58.20;;;;;;;;;;4991868;28;20430;-75
2022/02/16 09:34:05;;;;;;;99.00;57.80;;;;;;;;;;4985224;28;20340;-75
2022/02/16 09:36:32;;;;;;;97.97;58.70;;;;;;;;;;4993166;28;20029;-75
2022/02/16 09:38:59;;;;;;;104.07;59.87;;;;;;;;;;4991650;28;20053;-75
2022/02/16 09:41:25;;;;;;;99.60;58.97;;;;;;;;;;4992055;28;20162;-76
2022/02/16 09:43:51;;;;;;;97.70;57.07;;;;;;;;;;4990448;28;20073;-75
2022/02/16 09:46:18;;;;;;;104.93;58.90;;;;;;;;;;4992963;28;20026;-75
2022/02/16 09:48:44;;;;;;;100.73;59.37;;;;;;;;;;4976631;28;20031;-75
2022/02/16 09:51:10;;;;;;;109.97;61.80;;;;;;;;;;4972309;28;20058;-75
2022/02/16 09:53:37;;;;;;;94.23;56.37;;;;;;;;;;4986375;28;20034;-75
2022/02/16 09:56:04;;;;;;;103.50;59.17;;;;;;;;;;4992780;28;20019;-75
2022/02/16 09:58:32;;;;;;;101.40;57.77;;;;;;;;;;4984004;28;20027;-76
2022/02/16 10:01:00;;;;;;;107.00;59.23;;;;;;;;;;4992592;28;20464;-76
2022/02/16 10:03:27;;;;;;;107.77;60.33;;;;;;;;;;4979442;28;20035;-76
2022/02/16 10:05:53;;;;;;;98.03;55.90;;;;;;;;;;4973452;28;20031;-75
2022/02/16 10:08:37;;;;;;;97.60;58.10;;;;;;;;;;4974919;28;20027;-75
2022/02/16 10:11:03;;;;;;;100.95;56.47;;;;;;;;;;4973421;28;20034;-75
2022/02/16 10:13:29;;;;;;;98.23;58.73;;;;;;;;;;4990108;28;20472;-74
2022/02/16 10:15:56;;;;;;;101.07;58.00;;;;;;;;;;4983651;28;20180;-73
2022/02/16 10:18:23;;;;;;;96.93;57.43;;;;;;;;;;4984697;28;20361;-75
2022/02/16 10:20:50;;;;;;;101.07;57.33;;;;;;;;;;4992364;28;20030;-75
2022/02/16 10:23:16;;;;;;;94.67;59.17;;;;;;;;;;4973302;28;20027;-75
2022/02/16 10:25:50;;;;;;;96.87;58.20;;;;;;;;;;4971652;28;20038;-75
2022/02/16 10:28:18;;;;;;;102.57;59.17;;;;;;;;;;4982271;28;20026;-75
2022/02/16 10:31:01;;;;;;;98.53;58.20;;;;;;;;;;4987768;28;20037;-76
2022/02/16 10:33:28;;;;;;;106.57;60.43;;;;;;;;;;4983758;28;20176;-75
2022/02/16 10:36:04;;;;;;;105.40;60.53;;;;;;;;;;4991354;28;20027;-75
2022/02/16 10:38:32;;;;;;;104.37;59.00;;;;;;;;;;4981938;28;20042;-75
2022/02/16 10:41:03;;;;;;;97.47;59.63;;;;;;;;;;4992119;28;20105;-76
2022/02/16 10:43:34;;;;;;;105.07;58.53;;;;;;;;;;4991743;28;20435;-75
2022/02/16 10:46:01;;;;;;;98.23;58.53;;;;;;;;;;4990960;28;20113;-76
2022/02/16 10:48:27;;;;;;;100.80;58.67;;;;;;;;;;4981338;28;20129;-75
2022/02/16 10:50:54;;;;;;;99.40;59.33;;;;;;;;;;4972906;28;20480;-75
2022/02/16 10:53:25;;;;;;;106.17;60.03;;;;;;;;;;4973492;28;20031;-75
2022/02/16 10:55:55;;;;;;;98.53;59.40;;;;;;;;;;4977577;28;20030;-75
2022/02/16 11:01:26;;;;;;;102.73;57.73;;;;;;;;;;4987156;28;20045;-76
2022/02/16 11:03:53;;;;;;;97.60;56.93;;;;;;;;;;4979565;28;20068;-75
2022/02/16 11:06:21;;;;;;;102.87;60.60;;;;;;;;;;4976602;28;20049;-76
2022/02/16 11:08:47;;;;;;;93.30;57.07;;;;;;;;;;4990012;28;20027;-76
2022/02/16 11:11:17;;;;;;;100.87;59.57;;;;;;;;;;4990894;28;20034;-76
2022/02/16 11:13:44;;;;;;;98.60;58.00;;;;;;;;;;4991198;28;20034;-76
2022/02/16 11:16:11;;;;;;;99.50;60.60;;;;;;;;;;4991950;28;20023;-76
2022/02/16 11:18:46;;;;;;;97.50;59.40;;;;;;;;;;4989754;28;20125;-76
2022/02/16 11:21:14;;;;;;;100.43;58.57;;;;;;;;;;4991432;28;20034;-76
2022/02/16 11:23:48;;;;;;;99.90;59.70;;;;;;;;;;4990578;28;20499;-75
2022/02/16 11:26:37;;;;;;;97.70;57.93;;;;;;;;;;4991544;28;20073;-74
2022/02/16 11:29:08;;;;;;;94.50;57.57;;;;;;;;;;4989248;28;20035;-74
2022/02/16 11:31:37;;;;;;;96.87;58.57;;;;;;;;;;4990393;28;20043;-74
2022/02/16 11:34:17;;;;;;;94.97;59.57;;;;;;;;;;4979659;28;20034;-73
2022/02/16 11:36:52;;;;;;;99.37;58.97;;;;;;;;;;4983358;28;20121;-74
2022/02/16 11:39:37;;;;;;;91.57;56.70;;;;;;;;;;4989948;28;20050;-75
2022/02/16 11:48:12;;;;;;;94.80;54.27;;;;;;;;;;4975580;28;20033;-74
2022/02/16 11:50:39;;;;;;;93.67;54.03;;;;;;;;;;4971708;28;20019;-74
2022/02/16 11:53:10;;;;;;;94.45;56.63;;;;;;;;;;4970791;28;20027;-75
2022/02/16 11:55:37;;;;;;;98.13;57.40;;;;;;;;;;4970540;28;20035;-74
2022/02/16 11:58:10;;;;;;;93.80;56.88;;;;;;;;;;4971936;28;20031;-74
2022/02/16 12:00:55;;;;;;;91.60;56.50;;;;;;;;;;4981630;28;20503;-74
2022/02/16 12:03:25;;;;;;;88.95;55.90;;;;;;;;;;4971634;28;20045;-74
2022/02/16 12:05:58;;;;;;;91.35;56.20;;;;;;;;;;4971370;28;20034;-74
2022/02/16 12:08:39;;;;;;;88.80;55.20;;;;;;;;;;4970272;28;20027;-75
2022/02/16 12:11:19;;;;;;;98.25;57.10;;;;;;;;;;4983424;28;20394;-74
2022/02/16 12:13:58;;;;;;;88.30;53.00;;;;;;;;;;4989545;28;20018;-75
2022/02/16 12:16:24;;;;;;;90.43;54.27;;;;;;;;;;4990119;28;20027;-75
2022/02/16 12:18:51;;;;;;;87.47;54.60;;;;;;;;;;4989519;28;20054;-74
2022/02/16 12:21:27;;;;;;;89.15;54.08;;;;;;;;;;4976781;28;20388;-75
2022/02/16 12:23:59;;;;;;;91.40;55.38;;;;;;;;;;4971305;28;20035;-74
2022/02/16 12:26:27;;;;;;;80.75;52.15;;;;;;;;;;4985354;28;20029;-74
2022/02/16 12:29:03;;;;;;;90.68;54.85;;;;;;;;;;4990567;28;20026;-74
2022/02/16 12:31:30;;;;;;;88.05;53.38;;;;;;;;;;4988628;28;20549;-74
2022/02/16 12:34:01;;;;;;;90.40;53.90;;;;;;;;;;4990515;28;20387;-74
2022/02/16 12:36:27;;;;;;;87.03;54.08;;;;;;;;;;4975980;28;20046;-75
2022/02/16 12:38:55;;;;;;;84.32;53.17;;;;;;;;;;4970910;28;20058;-74
2022/02/16 12:41:21;;;;;;;87.93;52.65;;;;;;;;;;4983793;28;20033;-74
2022/02/16 12:44:01;;;;;;;86.88;53.13;;;;;;;;;;4981294;28;20404;-74
2022/02/16 12:46:29;;;;;;;88.20;51.35;;;;;;;;;;4979976;28;20031;-73
2022/02/16 12:48:55;;;;;;;85.45;50.20;;;;;;;;;;4971017;28;20152;-73
2022/02/16 12:51:31;;;;;;;86.47;49.65;;;;;;;;;;4983271;28;20027;-74
2022/02/16 12:54:02;;;;;;;83.15;50.70;;;;;;;;;;4990430;28;20066;-74
2022/02/16 12:56:28;;;;;;;80.63;51.10;;;;;;;;;;4976769;28;20092;-74
2022/02/16 12:58:54;;;;;;;78.35;49.78;;;;;;;;;;4970772;28;20034;-74
2022/02/16 13:04:28;;;;;;;79.03;48.22;;;;;;;;;;4973427;28;20057;-74
2022/02/16 13:06:55;;;;;;;78.00;49.55;;;;;;;;;;4988744;28;20499;-74
2022/02/16 13:09:24;;;;;;;88.47;51.15;;;;;;;;;;4993916;28;20026;-74
2022/02/16 13:11:53;;;;;;;79.72;48.67;;;;;;;;;;4991310;28;20511;-74
2022/02/16 13:14:20;;;;;;;76.38;48.53;;;;;;;;;;4993688;28;20038;-74
2022/02/16 13:17:03;;;;;;;78.47;48.17;;;;;;;;;;4992833;28;20060;-74
2022/02/16 13:19:48;;;;;;;79.55;49.88;;;;;;;;;;4993432;28;20484;-74
2022/02/16 13:22:15;;;;;;;75.82;47.75;;;;;;;;;;4991510;28;20030;-74
2022/02/16 13:25:10;;;;;;;75.32;48.05;;;;;;;;;;4982666;28;20065;-74
2022/02/16 13:27:46;;;;;;;80.68;48.00;;;;;;;;;;4972431;28;20060;-74
2022/02/16 13:30:15;;;;;;;77.35;47.78;;;;;;;;;;4974908;28;20034;-74
2022/02/16 13:32:43;;;;;;;74.10;46.15;;;;;;;;;;4973362;28;20034;-74
2022/02/16 13:35:25;;;;;;;76.68;46.38;;;;;;;;;;4975558;28;20028;-74
2022/02/16 13:38:03;;;;;;;76.05;45.30;;;;;;;;;;4987192;28;20513;-74
2022/02/16 13:40:31;;;;;;;73.50;46.83;;;;;;;;;;4973366;28;20030;-74
2022/02/16 13:43:04;;;;;;;75.47;45.15;;;;;;;;;;4973659;28;20107;-74
2022/02/16 13:45:35;;;;;;;75.88;45.30;;;;;;;;;;4978104;28;20546;-73
2022/02/16 13:48:02;;;;;;;74.20;45.50;;;;;;;;;;4993004;28;20111;-74
2022/02/16 13:50:31;;;;;;;68.95;44.78;;;;;;;;;;4989758;28;20035;-74
2022/02/16 13:52:58;;;;;;;71.95;44.53;;;;;;;;;;4973639;28;20023;-74
2022/02/16 13:55:24;;;;;;;77.35;45.30;;;;;;;;;;4973166;28;20049;-74
2022/02/16 13:57:50;;;;;;;72.15;44.20;;;;;;;;;;4991215;28;20026;-74
2022/02/16 14:00:21;;;;;;;72.82;43.28;;;;;;;;;;4989429;28;20113;-74
2022/02/16 14:03:22;;;;;;;66.80;41.78;;;;;;;;;;4973337;28;20031;-74
2022/02/16 14:05:48;;;;;;;71.15;42.58;;;;;;;;;;4953063;28;20043;-73
2022/02/16 14:08:14;;;;;;;66.85;42.00;;;;;;;;;;4965591;28;20039;-73
2022/02/16 14:10:40;;;;;;;67.60;41.38;;;;;;;;;;4975745;28;20450;-73
2022/02/16 14:13:07;;;;;;;68.43;42.47;;;;;;;;;;4992662;28;20379;-73
2022/02/16 14:15:33;;;;;;;68.35;42.28;;;;;;;;;;4990804;28;20057;-73
2022/02/16 14:17:59;;;;;;;64.75;40.15;;;;;;;;;;4991357;28;20026;-73
2022/02/16 14:20:25;;;;;;;63.70;38.97;;;;;;;;;;4992025;28;20035;-73
2022/02/16 14:22:51;;;;;;;69.95;40.75;;;;;;;;;;4973042;28;20031;-74
2022/02/16 14:25:17;;;;;;;60.85;37.97;;;;;;;;;;4973038;28;20042;-73
2022/02/16 14:27:43;;;;;;;67.05;40.65;;;;;;;;;;4990935;28;20040;-73
2022/02/16 14:30:12;;;;;;;65.18;40.08;;;;;;;;;;4991136;28;20121;-73
2022/02/16 14:32:39;;;;;;;59.83;38.75;;;;;;;;;;4990709;28;20081;-74
2022/02/16 14:35:06;;;;;;;60.78;39.90;;;;;;;;;;4991237;28;20034;-73
2022/02/16 14:37:36;;;;;;;62.40;38.15;;;;;;;;;;4975353;28;20095;-73
2022/02/16 14:40:03;;;;;;;63.33;39.75;;;;;;;;;;4972640;28;20054;-73
2022/02/16 14:42:30;;;;;;;65.75;40.90;;;;;;;;;;4988024;28;20072;-73
2022/02/16 14:44:56;;;;;;;63.10;40.50;;;;;;;;;;4992123;28;20506;-73
2022/02/16 14:47:22;;;;;;;65.20;40.63;;;;;;;;;;4976451;28;20038;-73
2022/02/16 14:49:48;;;;;;;63.75;40.20;;;;;;;;;;4989765;28;20030;-73
2022/02/16 14:52:15;;;;;;;64.80;40.47;;;;;;;;;;4980950;28;20396;-72
2022/02/16 14:54:44;;;;;;;63.47;39.40;;;;;;;;;;4987361;28;20034;-73
2022/02/16 14:57:45;;;;;;;70.43;41.08;;;;;;;;;;4982927;28;20034;-72